Time;durP1;ratioP1;P1;durP2;ratioP2;P2;SDS_P1;SDS_P2;PMS_P1;PMS_P2;Temp;Humidity;BMP_temperature;BMP_pressure;BME280_temperature;BME280_humidity;BME280_pressure;Samples;Min_cycle;Max_cycle;Signal;HPM_P1;HPM_P2
2022/12/09 00:00:05;;;;;;;24.33;14.13;;;0.70;99.90;;;;;;5078747;28;20123;-62
2022/12/09 00:02:30;;;;;;;21.67;14.52;;;0.40;1.00;;;;;;5077504;28;20119;-62
2022/12/09 00:04:56;;;;;;;24.05;14.77;;;0.70;1.00;;;;;;5084084;28;20545;-62
2022/12/09 00:07:21;;;;;;;25.70;13.95;;;1.20;1.00;;;;;;5089535;28;20547;-62
2022/12/09 00:09:47;;;;;;;20.02;13.60;;;1.00;1.00;;;;;;5092279;28;20066;-62
2022/12/09 00:12:12;;;;;;;18.15;12.95;;;0.70;1.00;;;;;;5088076;28;20075;-62
2022/12/09 00:14:38;;;;;;;19.58;13.27;;;1.00;1.00;;;;;;5084836;28;20097;-62
2022/12/09 00:17:03;;;;;;;23.77;15.52;;;1.10;1.00;;;;;;5089133;28;20055;-62
2022/12/09 00:19:29;;;;;;;21.27;14.20;;;0.70;1.00;;;;;;5086892;28;20040;-62
2022/12/09 00:21:55;;;;;;;20.58;14.00;;;1.50;1.00;;;;;;5075654;28;20032;-62
2022/12/09 00:24:20;;;;;;;27.08;15.52;;;1.10;22.40;;;;;;5086063;28;20086;-62
2022/12/09 00:26:46;;;;;;;24.50;15.95;;;1.00;1.00;;;;;;5086232;28;20150;-62
2022/12/09 00:29:11;;;;;;;28.35;15.55;;;1.10;1.00;;;;;;5088897;28;20043;-63
2022/12/09 00:31:37;;;;;;;102.30;17.30;;;0.90;1.00;;;;;;5087239;28;20498;-63
2022/12/09 00:34:06;;;;;;;589.10;52.42;;;0.90;1.00;;;;;;5083883;28;20032;-62
2022/12/09 00:36:33;;;;;;;27.88;15.25;;;1.20;1.00;;;;;;5089106;28;20039;-63
2022/12/09 00:38:59;;;;;;;25.02;17.02;;;1.20;1.00;;;;;;5091240;28;20032;-62
2022/12/09 00:41:26;;;;;;;32.55;17.40;;;1.60;1.00;;;;;;5086419;28;20071;-62
2022/12/09 00:43:53;;;;;;;23.48;15.10;;;1.40;17.60;;;;;;5088052;28;20063;-62
2022/12/09 00:46:19;;;;;;;24.02;14.63;;;1.00;12.10;;;;;;5089006;28;20074;-62
2022/12/09 00:48:44;;;;;;;22.10;14.55;;;1.20;1.00;;;;;;5088619;28;20419;-62
2022/12/09 00:51:15;;;;;;;20.98;13.27;;;1.50;1.00;;;;;;5092547;28;20061;-62
2022/12/09 00:53:41;;;;;;;24.25;14.00;;;1.50;1.00;;;;;;5085749;28;20043;-62
2022/12/09 00:56:07;;;;;;;32.20;16.13;;;1.30;1.00;;;;;;5090286;28;20538;-63
2022/12/09 00:58:32;;;;;;;29.60;15.68;;;0.80;1.00;;;;;;5091288;28;20505;-62
2022/12/09 01:00:58;;;;;;;28.00;16.15;;;1.20;1.00;;;;;;5089704;28;20093;-62
2022/12/09 01:03:24;;;;;;;31.55;16.90;;;1.30;1.00;;;;;;5080405;28;20457;-63
2022/12/09 01:05:49;;;;;;;60.17;17.20;;;1.50;1.00;;;;;;5081039;28;20043;-62
2022/12/09 01:08:15;;;;;;;98.28;18.00;;;1.30;12.30;;;;;;5090588;28;20081;-63
2022/12/09 01:10:42;;;;;;;146.10;19.27;;;0.90;25.70;;;;;;5090564;28;20397;-63
2022/12/09 01:13:08;;;;;;;1999.90;141.77;;;1.00;26.90;;;;;;5080103;28;20032;-63
2022/12/09 01:15:34;;;;;;;28.23;16.85;;;1.30;24.30;;;;;;5085872;28;20354;-63
2022/12/09 01:18:00;;;;;;;27.50;16.50;;;1.50;90.60;;;;;;5078428;28;20484;-62
2022/12/09 01:20:26;;;;;;;22.23;15.98;;;1.00;57.90;;;;;;5088446;28;20043;-62
2022/12/09 01:22:51;;;;;;;28.50;16.85;;;1.20;99.90;;;;;;5084170;28;20094;-63
2022/12/09 01:25:17;;;;;;;23.92;17.60;;;1.50;99.90;;;;;;5073341;28;20124;-62
2022/12/09 01:27:42;;;;;;;26.67;17.40;;;1.00;99.90;;;;;;5077291;28;20389;-62
2022/12/09 01:30:11;;;;;;;27.00;18.35;;;1.90;99.90;;;;;;5086047;28;20485;-63
2022/12/09 01:32:36;;;;;;;24.80;16.45;;;1.50;99.90;;;;;;5081905;28;20028;-63
2022/12/09 01:35:03;;;;;;;26.50;18.08;;;2.00;99.90;;;;;;5074520;28;20050;-63
2022/12/09 01:37:30;;;;;;;26.77;17.38;;;1.30;99.90;;;;;;5086963;28;20114;-63
2022/12/09 01:39:56;;;;;;;26.48;17.00;;;1.60;99.90;;;;;;5086722;28;20039;-63
2022/12/09 01:42:24;;;;;;;26.95;17.80;;;2.10;99.90;;;;;;5087828;28;20055;-63
2022/12/09 01:45:20;;;;;;;28.83;18.38;;;2.10;99.90;;;;;;5081894;28;20398;-63
2022/12/09 01:48:12;;;;;;;28.83;17.88;;;1.70;99.90;;;;;;5089470;28;20486;-63
2022/12/09 01:50:42;;;;;;;30.45;17.73;;;1.30;99.90;;;;;;5087562;28;20031;-63
2022/12/09 01:53:09;;;;;;;32.92;19.65;;;1.30;99.90;;;;;;5080304;28;20037;-63
2022/12/09 01:55:35;;;;;;;1283.88;87.25;;;1.40;99.90;;;;;;5075551;28;20517;-63
2022/12/09 01:58:02;;;;;;;19.20;14.10;;;2.20;99.90;;;;;;5084724;28;20101;-63
2022/12/09 02:00:28;;;;;;;21.88;13.95;;;1.90;99.90;;;;;;5083597;28;20032;-63
2022/12/09 02:02:55;;;;;;;21.75;15.40;;;1.40;99.90;;;;;;5079711;28;20032;-63
2022/12/09 02:05:23;;;;;;;19.73;15.02;;;1.40;99.90;;;;;;5076361;28;20032;-63
2022/12/09 02:07:49;;;;;;;21.25;14.73;;;1.40;99.90;;;;;;5080406;28;20111;-63
2022/12/09 02:10:16;;;;;;;19.50;14.63;;;2.00;1.00;;;;;;5079585;28;20434;-63
2022/12/09 02:13:06;;;;;;;19.35;13.98;;;2.10;1.00;;;;;;5087054;28;20032;-63
2022/12/09 02:15:40;;;;;;;18.20;14.90;;;2.00;1.00;;;;;;5082160;28;20563;-63
2022/12/09 02:18:58;;;;;;;19.00;13.90;;;1.90;1.00;;;;;;5080332;28;20451;-63
2022/12/09 02:21:32;;;;;;;20.00;14.13;;;1.70;1.00;;;;;;5082137;28;20494;-63
2022/12/09 02:24:15;;;;;;;19.67;14.95;;;2.00;1.00;;;;;;5090214;28;20028;-63
2022/12/09 02:26:48;;;;;;;18.25;14.43;;;2.10;1.00;;;;;;5086669;28;20390;-63
2022/12/09 02:29:38;;;;;;;22.38;14.13;;;1.90;1.00;;;;;;5090275;28;20067;-63
2022/12/09 02:32:24;;;;;;;21.67;15.70;;;1.80;1.00;;;;;;5080743;28;20088;-63
2022/12/09 02:34:59;;;;;;;15.57;12.82;;;1.50;1.00;;;;;;5082581;28;20485;-63
2022/12/09 02:37:27;;;;;;;17.10;12.57;;;1.50;1.00;;;;;;5077452;28;20131;-63
2022/12/09 02:39:59;;;;;;;18.65;14.05;;;1.40;1.00;;;;;;5093191;28;20036;-63
2022/12/09 02:42:29;;;;;;;22.02;13.07;;;1.70;99.90;;;;;;5094272;28;20075;-63
2022/12/09 02:44:57;;;;;;;17.08;13.70;;;1.50;99.90;;;;;;5092488;28;20071;-63
2022/12/09 02:47:25;;;;;;;20.17;14.43;;;1.60;99.90;;;;;;5083006;28;20051;-63
2022/12/09 02:49:56;;;;;;;1698.32;105.35;;;1.30;99.90;;;;;;5087762;28;20057;-63
2022/12/09 02:52:22;;;;;;;20.75;14.63;;;1.30;1.00;;;;;;5090461;28;20035;-63
2022/12/09 02:54:49;;;;;;;15.75;13.90;;;2.00;1.00;;;;;;5092155;28;20513;-63
2022/12/09 02:57:18;;;;;;;17.83;14.18;;;1.90;1.00;;;;;;5091784;28;20425;-63
2022/12/09 02:59:44;;;;;;;17.05;13.82;;;2.20;1.00;;;;;;5093945;28;20044;-63
2022/12/09 03:02:10;;;;;;;23.50;14.15;;;2.10;1.00;;;;;;5083194;28;20441;-63
2022/12/09 03:04:39;;;;;;;18.02;14.52;;;1.70;1.00;;;;;;5093666;28;20040;-63
2022/12/09 03:07:39;;;;;;;17.38;13.60;;;1.90;1.00;;;;;;5093527;28;20032;-63
2022/12/09 03:10:24;;;;;;;19.13;15.27;;;1.60;1.00;;;;;;5082882;28;20044;-63
2022/12/09 03:12:59;;;;;;;20.70;14.75;;;2.00;1.00;;;;;;5082731;28;20032;-63
2022/12/09 03:15:30;;;;;;;24.80;16.10;;;1.60;1.00;;;;;;5091645;28;20097;-63
2022/12/09 03:17:58;;;;;;;21.63;14.90;;;2.00;1.00;;;;;;5087651;28;20052;-63
2022/12/09 03:20:28;;;;;;;21.15;16.25;;;2.30;1.00;;;;;;5090103;28;20039;-64
2022/12/09 03:22:58;;;;;;;17.80;14.57;;;1.80;27.00;;;;;;5090271;28;20039;-63
2022/12/09 03:25:29;;;;;;;22.10;15.90;;;2.30;21.40;;;;;;5078257;28;20052;-63
2022/12/09 03:28:02;;;;;;;24.80;16.00;;;1.60;6.50;;;;;;5089527;28;20040;-63
2022/12/09 03:30:32;;;;;;;23.08;16.77;;;1.60;4.70;;;;;;5089807;28;20036;-63
2022/12/09 03:32:58;;;;;;;21.33;17.38;;;1.60;1.00;;;;;;5085845;28;20116;-63
2022/12/09 03:35:28;;;;;;;24.50;17.90;;;1.60;1.00;;;;;;5083836;28;20123;-63
2022/12/09 03:37:55;;;;;;;23.98;17.33;;;2.20;1.00;;;;;;5088860;28;20077;-63
2022/12/09 03:40:25;;;;;;;28.08;18.85;;;2.20;1.00;;;;;;5082772;28;20040;-63
2022/12/09 03:43:00;;;;;;;24.77;18.50;;;1.70;99.90;;;;;;5087646;28;20044;-63
2022/12/09 03:45:27;;;;;;;26.15;17.98;;;1.80;84.70;;;;;;5083400;28;20079;-64
2022/12/09 03:47:53;;;;;;;23.48;17.27;;;2.20;54.30;;;;;;5076935;28;20044;-63
2022/12/09 03:50:22;;;;;;;21.25;16.02;;;1.70;88.50;;;;;;5084057;28;20036;-63
2022/12/09 03:52:59;;;;;;;22.55;17.15;;;1.90;50.90;;;;;;5084238;28;20120;-63
2022/12/09 03:55:30;;;;;;;24.92;17.40;;;2.10;16.20;;;;;;5092784;28;20094;-63
2022/12/09 03:57:58;;;;;;;23.10;16.60;;;1.90;1.00;;;;;;5086174;28;20556;-64
2022/12/09 04:00:24;;;;;;;21.30;16.48;;;2.20;20.30;;;;;;5087269;28;20048;-63
2022/12/09 04:02:50;;;;;;;22.75;16.42;;;1.80;99.90;;;;;;5085811;28;20078;-63
2022/12/09 04:05:15;;;;;;;22.40;16.52;;;1.80;99.90;;;;;;5086053;28;20161;-63
2022/12/09 04:07:41;;;;;;;22.27;17.33;;;1.90;99.90;;;;;;5078952;28;20435;-63
2022/12/09 04:10:07;;;;;;;23.65;18.13;;;2.10;99.90;;;;;;5081108;28;20047;-63
2022/12/09 04:12:33;;;;;;;27.17;18.02;;;2.20;99.90;;;;;;5088777;28;20040;-63
2022/12/09 04:14:59;;;;;;;27.20;18.90;;;1.70;75.80;;;;;;5091484;28;20450;-63
2022/12/09 04:17:24;;;;;;;22.17;16.98;;;1.90;27.30;;;;;;5092707;28;20143;-63
2022/12/09 04:19:50;;;;;;;25.50;18.17;;;2.00;6.70;;;;;;5092441;28;20404;-63
2022/12/09 04:22:15;;;;;;;23.52;17.58;;;1.90;99.90;;;;;;5084346;28;20078;-63
2022/12/09 04:24:41;;;;;;;23.48;17.38;;;1.90;99.90;;;;;;5091062;28;20043;-63
2022/12/09 04:27:06;;;;;;;27.33;17.30;;;1.90;99.90;;;;;;5090563;28;20028;-63
2022/12/09 04:29:32;;;;;;;30.33;18.08;;;2.60;99.90;;;;;;5076280;28;20032;-63
2022/12/09 04:31:57;;;;;;;27.60;18.50;;;2.30;99.90;;;;;;5078935;28;20458;-63
2022/12/09 04:34:23;;;;;;;31.65;20.83;;;2.50;99.90;;;;;;5090714;28;20401;-64
2022/12/09 04:36:48;;;;;;;32.65;21.50;;;2.50;99.90;;;;;;5088685;28;20444;-63
2022/12/09 04:39:14;;;;;;;27.67;19.90;;;2.10;99.90;;;;;;5089918;28;20100;-63
2022/12/09 04:41:40;;;;;;;37.75;21.75;;;2.10;99.90;;;;;;5080221;28;20048;-63
2022/12/09 04:44:05;;;;;;;28.25;20.70;;;2.20;99.90;;;;;;5075034;28;20557;-63
2022/12/09 04:46:31;;;;;;;28.88;21.35;;;2.50;99.90;;;;;;5077786;28;20035;-63
2022/12/09 04:48:57;;;;;;;31.38;21.77;;;2.10;99.90;;;;;;5088450;28;20028;-64
2022/12/09 04:51:22;;;;;;;35.75;23.33;;;2.70;99.90;;;;;;5089408;28;20036;-63
2022/12/09 04:53:48;;;;;;;28.75;21.83;;;2.50;99.90;;;;;;5081543;28;20437;-63
2022/12/09 04:56:20;;;;;;;34.58;22.95;;;2.20;99.90;;;;;;5080529;28;20425;-63
2022/12/09 04:58:47;;;;;;;33.35;22.50;;;2.00;99.90;;;;;;5087145;28;20119;-63
2022/12/09 05:01:15;;;;;;;1966.70;131.88;;;2.50;99.90;;;;;;5083791;28;20628;-63
2022/12/09 05:03:41;;;;;;;31.70;22.85;;;2.60;99.90;;;;;;5084877;28;20124;-63
2022/12/09 05:06:10;;;;;;;31.83;22.83;;;2.50;99.90;;;;;;5074388;28;20401;-63
2022/12/09 05:08:36;;;;;;;28.33;21.17;;;1.90;99.90;;;;;;5079697;28;20032;-63
2022/12/09 05:11:02;;;;;;;32.50;23.60;;;1.90;99.90;;;;;;5087593;28;20024;-63
2022/12/09 05:13:27;;;;;;;34.92;23.35;;;2.10;99.90;;;;;;5083820;28;20497;-63
2022/12/09 05:16:04;;;;;;;33.40;23.75;;;2.40;99.90;;;;;;5090953;28;20055;-63
2022/12/09 05:18:30;;;;;;;36.40;24.20;;;2.30;99.90;;;;;;5077672;28;20044;-63
2022/12/09 05:20:55;;;;;;;37.55;24.92;;;2.30;99.90;;;;;;5080075;28;20036;-63
2022/12/09 05:23:21;;;;;;;38.47;25.40;;;2.40;99.90;;;;;;5071989;28;20032;-63
2022/12/09 05:25:47;;;;;;;38.67;26.73;;;1.80;99.90;;;;;;5072999;28;20111;-63
2022/12/09 05:28:13;;;;;;;43.03;26.00;;;2.40;99.90;;;;;;5086002;28;20111;-63
2022/12/09 05:30:38;;;;;;;37.75;24.58;;;2.60;99.90;;;;;;5077959;28;20425;-63
2022/12/09 05:33:04;;;;;;;37.40;26.08;;;2.50;99.90;;;;;;5076579;28;20036;-63
2022/12/09 05:35:30;;;;;;;38.13;27.50;;;2.30;99.90;;;;;;5085893;28;20040;-63
2022/12/09 05:37:56;;;;;;;40.22;27.63;;;2.40;99.90;;;;;;5073421;28;20044;-63
2022/12/09 05:40:22;;;;;;;39.95;27.08;;;2.40;99.90;;;;;;5076652;28;20040;-63
2022/12/09 05:42:47;;;;;;;38.90;26.73;;;2.80;1.00;;;;;;5085174;28;20358;-63
2022/12/09 05:45:13;;;;;;;46.70;27.83;;;3.30;1.00;;;;;;5084181;28;20127;-63
2022/12/09 05:47:39;;;;;;;40.97;26.40;;;3.20;1.00;;;;;;5089889;28;20082;-63
2022/12/09 05:50:06;;;;;;;43.85;27.63;;;2.70;1.00;;;;;;5081259;28;20044;-63
2022/12/09 05:52:34;;;;;;;43.53;28.23;;;3.50;1.00;;;;;;5081105;28;20034;-63
2022/12/09 05:55:03;;;;;;;45.95;29.70;;;3.50;1.00;;;;;;5078815;28;20047;-63
2022/12/09 05:57:28;;;;;;;41.47;29.67;;;3.50;1.00;;;;;;5081077;28;20032;-63
2022/12/09 05:59:54;;;;;;;41.15;27.50;;;3.00;1.00;;;;;;5087187;28;20043;-63
2022/12/09 06:02:19;;;;;;;38.97;27.85;;;3.60;1.00;;;;;;5085393;28;20113;-63
2022/12/09 06:04:45;;;;;;;44.47;27.77;;;3.40;1.00;;;;;;5086991;28;20076;-63
2022/12/09 06:07:11;;;;;;;46.42;30.20;;;3.20;1.00;;;;;;5094742;28;20086;-63
2022/12/09 06:09:36;;;;;;;45.25;29.30;;;3.80;45.00;;;;;;5092206;28;20054;-63
2022/12/09 06:12:02;;;;;;;46.75;29.90;;;3.80;49.40;;;;;;5080948;28;20032;-63
2022/12/09 06:14:28;;;;;;;42.75;28.85;;;3.40;49.90;;;;;;5085916;28;20168;-63
2022/12/09 06:16:53;;;;;;;40.00;26.70;;;3.20;49.50;;;;;;5093768;28;20501;-63
2022/12/09 06:19:19;;;;;;;41.40;26.80;;;3.30;66.00;;;;;;5087638;28;20040;-63
2022/12/09 06:21:45;;;;;;;39.83;26.08;;;3.30;92.30;;;;;;5085357;28;20127;-63
2022/12/09 06:24:10;;;;;;;42.83;28.25;;;4.10;99.90;;;;;;5091582;28;20044;-62
2022/12/09 06:26:36;;;;;;;42.95;27.73;;;3.80;99.90;;;;;;5093305;28;20111;-63
2022/12/09 06:29:01;;;;;;;44.67;28.00;;;3.90;99.90;;;;;;5094503;28;20043;-63
2022/12/09 06:31:28;;;;;;;39.65;25.92;;;4.10;99.90;;;;;;5091324;28;20043;-63
2022/12/09 06:33:53;;;;;;;38.45;26.58;;;3.80;99.90;;;;;;5084599;28;20040;-63
2022/12/09 06:36:20;;;;;;;40.70;26.60;;;3.50;99.90;;;;;;5093508;28;20047;-63
2022/12/09 06:38:45;;;;;;;42.85;25.58;;;3.80;99.90;;;;;;5083732;28;20504;-62
2022/12/09 06:41:13;;;;;;;38.53;25.20;;;3.60;99.90;;;;;;5081763;28;20032;-63
2022/12/09 06:43:39;;;;;;;34.67;25.35;;;4.10;99.90;;;;;;5094044;28;20036;-63
2022/12/09 06:46:35;;;;;;;36.95;24.52;;;3.80;99.90;;;;;;5094494;28;20504;-62
2022/12/09 06:49:00;;;;;;;40.42;23.92;;;4.20;99.90;;;;;;5082136;28;20071;-63
2022/12/09 06:51:26;;;;;;;44.15;24.20;;;4.20;99.90;;;;;;5090944;28;20063;-63
2022/12/09 06:53:52;;;;;;;36.72;23.63;;;3.80;99.90;;;;;;5088330;28;20498;-63
2022/12/09 06:56:18;;;;;;;40.60;24.73;;;4.30;99.90;;;;;;5094219;28;20509;-63
2022/12/09 06:58:45;;;;;;;36.33;24.40;;;3.80;99.90;;;;;;5090864;28;20035;-63
2022/12/09 07:01:14;;;;;;;33.53;23.15;;;3.80;99.90;;;;;;5074985;28;20041;-63
2022/12/09 07:03:41;;;;;;;36.47;23.73;;;3.80;99.90;;;;;;5086593;28;20110;-63
2022/12/09 07:06:07;;;;;;;35.72;22.65;;;3.80;99.90;;;;;;5093912;28;20123;-63
2022/12/09 07:08:33;;;;;;;33.60;23.90;;;3.80;99.90;;;;;;5090302;28;20189;-63
2022/12/09 07:10:59;;;;;;;32.40;23.38;;;4.30;99.90;;;;;;5089209;28;20040;-63
2022/12/09 07:13:24;;;;;;;33.08;22.02;;;3.90;99.90;;;;;;5080795;28;20486;-63
2022/12/09 07:15:50;;;;;;;41.92;23.30;;;3.80;99.90;;;;;;5089711;28;21286;-63
2022/12/09 07:18:16;;;;;;;36.95;22.05;;;3.80;99.90;;;;;;5090811;28;20085;-63
2022/12/09 07:20:41;;;;;;;34.45;21.70;;;3.80;99.90;;;;;;5079004;28;20041;-63
2022/12/09 07:23:07;;;;;;;33.83;22.92;;;4.40;99.90;;;;;;5084963;28;20036;-63
2022/12/09 07:25:32;;;;;;;32.83;21.58;;;4.50;99.90;;;;;;5082309;28;20036;-63
2022/12/09 07:27:58;;;;;;;34.13;22.27;;;4.40;99.90;;;;;;5084311;28;20028;-63
2022/12/09 07:30:23;;;;;;;36.25;24.77;;;4.30;99.90;;;;;;5081365;28;20082;-63
2022/12/09 07:32:49;;;;;;;34.03;22.92;;;4.60;99.90;;;;;;5088421;28;20095;-63
2022/12/09 07:35:14;;;;;;;32.05;21.30;;;4.40;99.90;;;;;;5089932;28;20043;-64
2022/12/09 07:37:40;;;;;;;31.27;21.35;;;4.60;99.90;;;;;;5078070;28;20044;-63
2022/12/09 07:40:06;;;;;;;26.23;20.50;;;4.60;99.90;;;;;;5073310;28;20490;-64
2022/12/09 07:42:31;;;;;;;30.88;21.27;;;4.00;99.90;;;;;;5079857;28;20061;-64
2022/12/09 07:44:57;;;;;;;32.95;20.73;;;4.20;99.90;;;;;;5082544;28;20036;-63
2022/12/09 07:47:22;;;;;;;29.17;20.15;;;4.50;99.90;;;;;;5079471;28;20068;-63
2022/12/09 07:49:48;;;;;;;27.88;20.27;;;4.40;99.90;;;;;;5091827;28;20420;-63
2022/12/09 07:52:13;;;;;;;29.23;19.92;;;4.40;99.90;;;;;;5083114;28;20040;-63
2022/12/09 07:54:39;;;;;;;29.10;19.38;;;4.00;99.90;;;;;;5080519;28;20044;-64
2022/12/09 07:57:05;;;;;;;26.92;19.38;;;4.20;99.90;;;;;;5090284;28;20040;-63
2022/12/09 07:59:30;;;;;;;26.77;17.90;;;3.90;99.90;;;;;;5081260;28;20405;-63
2022/12/09 08:01:56;;;;;;;25.83;18.77;;;4.20;99.90;;;;;;5077887;28;20035;-63
2022/12/09 08:04:21;;;;;;;26.38;18.77;;;4.10;89.50;;;;;;5076703;28;20094;-63
2022/12/09 08:06:47;;;;;;;24.60;17.70;;;3.60;57.40;;;;;;5078156;28;20039;-64
2022/12/09 08:09:12;;;;;;;25.75;18.92;;;3.50;1.00;;;;;;5077914;28;20056;-63
2022/12/09 08:11:39;;;;;;;25.20;19.25;;;3.70;1.00;;;;;;5076176;28;20055;-63
2022/12/09 08:14:06;;;;;;;25.42;17.25;;;3.30;1.00;;;;;;5076233;28;20052;-63
2022/12/09 08:16:32;;;;;;;28.20;17.90;;;3.30;1.00;;;;;;5074280;28;20056;-63
2022/12/09 08:18:57;;;;;;;25.63;19.13;;;3.50;1.00;;;;;;5072674;28;20082;-63
2022/12/09 08:21:26;;;;;;;26.73;17.65;;;3.50;1.00;;;;;;5073216;28;20555;-64
2022/12/09 08:23:53;;;;;;;26.05;18.20;;;4.00;79.40;;;;;;5077691;28;20037;-64
2022/12/09 08:26:21;;;;;;;24.10;18.40;;;3.60;99.90;;;;;;5076100;28;20043;-63
2022/12/09 08:28:47;;;;;;;27.50;19.10;;;3.90;99.90;;;;;;5082746;28;20051;-63
2022/12/09 08:31:15;;;;;;;24.83;18.35;;;3.80;99.90;;;;;;5081847;28;20080;-63
2022/12/09 08:33:41;;;;;;;25.42;18.08;;;3.80;1.00;;;;;;5086841;28;20063;-63
2022/12/09 08:36:12;;;;;;;24.83;18.45;;;4.40;1.00;;;;;;5091910;28;20036;-63
2022/12/09 08:38:38;;;;;;;27.73;18.58;;;4.70;1.00;;;;;;5081446;28;20032;-63
2022/12/09 08:41:16;;;;;;;22.35;17.27;;;4.70;1.00;;;;;;5087937;28;20096;-63
2022/12/09 08:43:42;;;;;;;24.25;17.75;;;4.30;1.00;;;;;;5082334;28;20059;-63
2022/12/09 08:46:08;;;;;;;24.13;17.63;;;4.50;1.00;;;;;;5077557;28;20038;-64
2022/12/09 08:48:38;;;;;;;25.85;18.70;;;4.70;1.00;;;;;;5078314;28;20175;-63
2022/12/09 08:51:06;;;;;;;23.90;17.45;;;4.70;1.00;;;;;;5084276;28;20036;-63
2022/12/09 08:53:31;;;;;;;28.50;19.60;;;4.60;1.00;;;;;;5085797;28;20115;-63
2022/12/09 08:55:57;;;;;;;24.27;17.27;;;4.40;1.00;;;;;;5086133;28;20123;-63
2022/12/09 08:58:23;;;;;;;25.73;17.48;;;4.60;1.00;;;;;;5082611;28;20460;-63
2022/12/09 09:00:49;;;;;;;28.10;18.13;;;4.80;2.10;;;;;;5081624;28;20072;-63
2022/12/09 09:03:14;;;;;;;29.75;19.35;;;4.50;23.70;;;;;;5084323;28;20036;-63
2022/12/09 09:05:40;;;;;;;28.58;18.75;;;4.40;39.50;;;;;;5084826;28;20041;-63
2022/12/09 09:08:05;;;;;;;28.75;19.52;;;4.40;28.20;;;;;;5072388;28;20044;-63
2022/12/09 09:10:31;;;;;;;29.35;20.17;;;4.80;11.00;;;;;;5071950;28;20046;-64
2022/12/09 09:12:56;;;;;;;33.40;17.65;;;4.40;27.80;;;;;;5082230;28;20036;-63
2022/12/09 09:15:22;;;;;;;33.33;20.80;;;5.00;84.90;;;;;;5092245;28;20036;-63
2022/12/09 09:17:50;;;;;;;32.97;20.27;;;5.20;99.90;;;;;;5089461;28;20139;-64
2022/12/09 09:20:15;;;;;;;31.73;20.90;;;4.90;99.90;;;;;;5083868;28;20040;-63
2022/12/09 09:22:41;;;;;;;34.25;22.90;;;5.00;99.90;;;;;;5091552;28;20077;-64
2022/12/09 09:25:07;;;;;;;35.38;23.95;;;5.40;99.90;;;;;;5083724;28;20062;-63
2022/12/09 09:27:33;;;;;;;39.55;24.95;;;5.70;99.90;;;;;;5072800;28;20477;-63
2022/12/09 09:29:59;;;;;;;36.45;24.63;;;5.50;1.00;;;;;;5080904;28;20060;-63
2022/12/09 09:32:24;;;;;;;39.38;24.85;;;5.80;1.00;;;;;;5079091;28;20064;-63
2022/12/09 09:34:52;;;;;;;36.35;24.55;;;5.40;1.00;;;;;;5089671;28;20044;-63
2022/12/09 09:37:17;;;;;;;42.35;25.85;;;5.70;99.90;;;;;;5089868;28;20036;-62
2022/12/09 09:39:43;;;;;;;40.83;25.38;;;5.40;99.90;;;;;;5076789;28;20821;-63
2022/12/09 09:42:15;;;;;;;43.20;25.75;;;5.90;99.90;;;;;;5086612;28;20032;-63
2022/12/09 09:44:47;;;;;;;43.08;26.33;;;5.80;99.90;;;;;;5077501;28;20053;-63
2022/12/09 09:47:28;;;;;;;40.75;24.30;;;5.90;99.90;;;;;;5088217;28;20745;-63
2022/12/09 09:50:00;;;;;;;40.65;25.92;;;5.60;99.90;;;;;;5088590;28;20330;-63
2022/12/09 09:52:28;;;;;;;163.57;30.13;;;5.80;52.80;;;;;;5089901;28;20071;-64
2022/12/09 09:54:53;;;;;;;37.78;25.73;;;5.80;99.90;;;;;;5084914;28;20489;-63
2022/12/09 09:57:39;;;;;;;37.55;25.13;;;5.70;99.90;;;;;;5094506;28;20032;-62
2022/12/09 10:00:20;;;;;;;41.70;26.15;;;5.90;99.90;;;;;;5087235;28;20130;-63
2022/12/09 10:03:01;;;;;;;40.85;26.38;;;6.10;99.90;;;;;;5089980;28;20043;-63
2022/12/09 10:05:48;;;;;;;44.63;27.10;;;5.80;49.80;;;;;;5088867;28;20066;-63
2022/12/09 10:08:16;;;;;;;44.88;27.85;;;6.10;99.90;;;;;;5084475;28;20114;-63
2022/12/09 10:11:06;;;;;;;40.78;27.40;;;5.90;99.90;;;;;;5086016;28;20047;-63
2022/12/09 10:13:55;;;;;;;45.60;27.63;;;6.10;99.90;;;;;;5088269;28;20072;-63
2022/12/09 10:16:43;;;;;;;35.63;25.15;;;6.30;99.90;;;;;;5089553;28;20047;-63
2022/12/09 10:19:15;;;;;;;38.53;24.58;;;6.00;99.90;;;;;;5074899;28;20072;-63
2022/12/09 10:21:42;;;;;;;45.67;28.00;;;5.90;99.90;;;;;;5088303;28;20044;-63
2022/12/09 10:24:30;;;;;;;41.83;28.27;;;6.60;1.00;;;;;;5085768;28;20504;-63
2022/12/09 10:27:25;;;;;;;44.65;28.52;;;6.70;1.00;;;;;;5084546;28;20028;-63
2022/12/09 10:30:07;;;;;;;47.72;30.45;;;6.40;17.40;;;;;;5072762;28;20060;-63
2022/12/09 10:32:34;;;;;;;41.90;27.88;;;6.90;50.90;;;;;;5083502;28;20036;-63
2022/12/09 10:35:01;;;;;;;43.97;28.20;;;6.60;43.50;;;;;;5080613;28;20044;-63
2022/12/09 10:37:33;;;;;;;45.70;29.33;;;7.00;23.00;;;;;;5089862;28;20063;-62
2022/12/09 10:40:04;;;;;;;42.67;29.15;;;7.00;10.80;;;;;;5087085;28;20486;-64
2022/12/09 10:45:20;;;;;;;48.53;28.88;;;6.90;1.00;;;;;;5083609;28;20440;-64
2022/12/09 10:47:51;;;;;;;44.00;29.08;;;7.10;1.00;;;;;;5088639;28;20037;-65
2022/12/09 10:50:30;;;;;;;42.38;28.27;;;7.20;1.00;;;;;;5079454;28;20794;-64
2022/12/09 10:52:56;;;;;;;42.42;27.17;;;6.90;1.00;;;;;;5094710;28;20040;-64
2022/12/09 10:55:35;;;;;;;38.47;26.88;;;7.00;1.00;;;;;;5093439;28;20069;-64
2022/12/09 10:58:26;;;;;;;38.47;26.17;;;7.10;1.00;;;;;;5091716;28;20036;-64
2022/12/09 11:01:00;;;;;;;43.55;26.90;;;7.20;99.90;;;;;;5084501;28;20113;-64
2022/12/09 11:03:47;;;;;;;42.33;27.13;;;7.40;99.90;;;;;;5086632;28;20040;-63
2022/12/09 11:06:16;;;;;;;39.35;24.20;;;7.30;99.90;;;;;;5091573;28;20119;-63
2022/12/09 11:08:49;;;;;;;41.35;25.88;;;7.40;99.90;;;;;;5072588;28;20069;-64
2022/12/09 11:11:15;;;;;;;39.05;25.30;;;7.70;99.90;;;;;;5074511;28;20150;-64
2022/12/09 11:13:42;;;;;;;44.67;25.15;;;7.60;99.90;;;;;;5074355;28;20063;-64
2022/12/09 11:16:08;;;;;;;37.65;24.65;;;7.70;99.90;;;;;;5074048;28;20084;-64
2022/12/09 11:18:44;;;;;;;40.40;24.35;;;7.80;99.90;;;;;;5082045;28;20032;-64
2022/12/09 11:21:35;;;;;;;38.15;24.83;;;7.60;7.20;;;;;;5094306;28;20502;-64
2022/12/09 11:24:01;;;;;;;36.22;24.85;;;7.50;1.00;;;;;;5092921;28;20130;-64
2022/12/09 11:26:36;;;;;;;44.00;26.02;;;7.50;99.90;;;;;;5094145;28;20066;-63
2022/12/09 11:29:17;;;;;;;37.20;24.60;;;7.30;99.90;;;;;;5094259;28;20043;-64
2022/12/09 11:31:44;;;;;;;38.63;25.73;;;7.20;99.90;;;;;;5092798;28;20086;-63
2022/12/09 11:34:16;;;;;;;37.78;25.33;;;7.40;49.20;;;;;;5091796;28;20119;-63
2022/12/09 11:36:50;;;;;;;36.33;23.15;;;7.30;1.00;;;;;;5091446;28;20036;-63
2022/12/09 11:39:18;;;;;;;40.13;27.58;;;7.20;1.00;;;;;;5093785;28;20450;-63
2022/12/09 11:42:16;;;;;;;156.90;31.40;;;7.00;99.90;;;;;;5093948;28;20044;-63
2022/12/09 11:44:52;;;;;;;43.70;28.25;;;7.20;1.00;;;;;;5077914;28;20118;-63
2022/12/09 11:47:38;;;;;;;42.80;28.25;;;7.30;1.00;;;;;;5073676;28;20486;-63
2022/12/09 11:50:22;;;;;;;;;;;7.40;1.00;;;;;;5073853;28;20041;-63
2022/12/09 11:53:07;;;;;;;44.95;28.40;;;7.50;99.90;;;;;;5073350;28;19916;-63
2022/12/09 11:55:36;;;;;;;43.10;28.45;;;7.50;99.90;;;;;;5072487;28;20560;-63
2022/12/09 11:58:10;;;;;;;41.55;27.35;;;7.50;99.90;;;;;;5071839;28;20036;-64
2022/12/09 12:00:48;;;;;;;42.33;28.33;;;7.30;99.90;;;;;;5073141;28;20044;-64
2022/12/09 12:03:19;;;;;;;42.72;27.52;;;7.40;99.90;;;;;;5072760;28;20090;-64
2022/12/09 12:05:49;;;;;;;41.00;27.85;;;7.50;99.90;;;;;;5081504;28;20083;-63
2022/12/09 12:08:46;;;;;;;39.47;28.00;;;7.20;99.90;;;;;;5074352;28;20444;-64
2022/12/09 12:11:18;;;;;;;39.00;25.63;;;7.10;1.00;;;;;;5071709;28;20516;-63
2022/12/09 12:13:52;;;;;;;37.80;25.25;;;7.00;1.00;;;;;;5072886;28;20080;-64
2022/12/09 12:16:33;;;;;;;140.98;29.00;;;7.10;1.00;;;;;;5072905;28;20079;-63
2022/12/09 12:19:29;;;;;;;43.60;28.20;;;7.30;1.00;;;;;;5072851;28;20510;-63
2022/12/09 12:22:13;;;;;;;42.45;28.60;;;7.50;1.00;;;;;;5072865;28;20037;-63
2022/12/09 12:25:21;;;;;;;38.92;27.27;;;7.30;1.00;;;;;;5082395;28;20097;-63
2022/12/09 12:28:05;;;;;;;40.03;26.25;;;7.40;1.00;;;;;;5091622;28;20040;-63
2022/12/09 12:30:53;;;;;;;40.95;27.13;;;7.30;1.00;;;;;;5072867;28;20037;-63
2022/12/09 12:33:37;;;;;;;40.40;26.48;;;7.30;99.90;;;;;;5072639;28;20040;-63
2022/12/09 12:36:24;;;;;;;37.88;25.63;;;7.30;99.90;;;;;;5072662;28;20040;-63
2022/12/09 12:39:01;;;;;;;39.38;26.95;;;7.40;99.90;;;;;;5074037;28;20044;-63
2022/12/09 12:41:48;;;;;;;43.22;28.50;;;7.40;99.90;;;;;;5072711;28;20562;-63
2022/12/09 12:47:21;;;;;;;39.05;24.65;;;7.40;99.90;;;;;;5072523;28;20119;-64
2022/12/09 12:49:52;;;;;;;40.63;26.13;;;7.30;99.90;;;;;;5072350;28;20086;-64
2022/12/09 12:52:41;;;;;;;38.15;23.45;;;7.20;57.80;;;;;;5072489;28;20036;-63
2022/12/09 12:55:16;;;;;;;37.85;25.50;;;7.20;90.50;;;;;;5089973;28;20248;-63
2022/12/09 12:58:04;;;;;;;38.93;24.57;;;7.40;99.90;;;;;;5092588;28;20032;-64
2022/12/09 13:00:43;;;;;;;41.78;25.42;;;7.60;99.90;;;;;;5077676;28;20048;-63